sensor_id;sensor_type;location;lat;lon;timestamp;pressure;altitude;pressure_sealevel;temperature;humidity
32735;BME280;19112;51.076;3.706;2023-02-12T00:01:15;103474.75;;;10.36;67.79
32735;BME280;19112;51.076;3.706;2023-02-12T00:03:41;103451.31;;;10.28;67.50
32735;BME280;19112;51.076;3.706;2023-02-12T00:06:08;103539.31;;;10.68;67.68
32735;BME280;19112;51.076;3.706;2023-02-12T00:08:35;103504.91;;;10.41;67.57
32735;BME280;19112;51.076;3.706;2023-02-12T00:11:17;103623.50;;;11.15;67.76
32735;BME280;19112;51.076;3.706;2023-02-12T00:13:44;103681.47;;;11.28;66.77
32735;BME280;19112;51.076;3.706;2023-02-12T00:16:13;103716.38;;;11.49;67.10
32735;BME280;19112;51.076;3.706;2023-02-12T00:18:40;103544.56;;;10.56;65.94
32735;BME280;19112;51.076;3.706;2023-02-12T00:21:06;103579.09;;;10.72;65.00
32735;BME280;19112;51.076;3.706;2023-02-12T00:23:35;103434.00;;;9.74;65.72
32735;BME280;19112;51.076;3.706;2023-02-12T00:26:12;103671.06;;;11.18;65.78
32735;BME280;19112;51.076;3.706;2023-02-12T00:28:38;103492.41;;;10.27;65.39
32735;BME280;19112;51.076;3.706;2023-02-12T00:31:13;103383.50;;;9.77;65.43
32735;BME280;19112;51.076;3.706;2023-02-12T00:33:39;103783.38;;;11.88;65.81
32735;BME280;19112;51.076;3.706;2023-02-12T00:36:06;103703.03;;;11.46;65.62
32735;BME280;19112;51.076;3.706;2023-02-12T00:38:32;103490.53;;;10.48;64.84
32735;BME280;19112;51.076;3.706;2023-02-12T00:40:58;103761.75;;;12.03;65.04
32735;BME280;19112;51.076;3.706;2023-02-12T00:43:25;103689.75;;;11.68;64.66
32735;BME280;19112;51.076;3.706;2023-02-12T00:45:50;103504.81;;;10.52;64.89
32735;BME280;19112;51.076;3.706;2023-02-12T00:48:16;103806.13;;;11.75;64.99
32735;BME280;19112;51.076;3.706;2023-02-12T00:50:46;103584.34;;;10.72;65.66
32735;BME280;19112;51.076;3.706;2023-02-12T00:53:13;103776.03;;;11.72;65.83
32735;BME280;19112;51.076;3.706;2023-02-12T00:55:39;103313.06;;;9.14;65.72
32735;BME280;19112;51.076;3.706;2023-02-12T00:58:06;103725.91;;;11.47;65.62
32735;BME280;19112;51.076;3.706;2023-02-12T01:00:33;103773.25;;;11.59;64.82
32735;BME280;19112;51.076;3.706;2023-02-12T01:03:00;103773.44;;;11.38;64.24
32735;BME280;19112;51.076;3.706;2023-02-12T01:05:26;103774.50;;;11.40;64.53
32735;BME280;19112;51.076;3.706;2023-02-12T01:07:53;103465.44;;;9.84;64.13
32735;BME280;19112;51.076;3.706;2023-02-12T01:10:19;103565.94;;;10.61;63.84
32735;BME280;19112;51.076;3.706;2023-02-12T01:12:46;103762.28;;;11.76;63.53
32735;BME280;19112;51.076;3.706;2023-02-12T01:15:13;103592.63;;;10.89;62.08
32735;BME280;19112;51.076;3.706;2023-02-12T01:17:39;103702.22;;;11.47;62.57
32735;BME280;19112;51.076;3.706;2023-02-12T01:20:10;103763.47;;;11.91;62.52
32735;BME280;19112;51.076;3.706;2023-02-12T01:22:37;103685.72;;;11.26;62.70
32735;BME280;19112;51.076;3.706;2023-02-12T01:25:05;103549.88;;;10.34;63.33
32735;BME280;19112;51.076;3.706;2023-02-12T01:27:31;103774.25;;;11.37;62.63
32735;BME280;19112;51.076;3.706;2023-02-12T01:29:57;103728.75;;;10.93;62.69
32735;BME280;19112;51.076;3.706;2023-02-12T01:32:23;103701.91;;;10.75;62.55
32735;BME280;19112;51.076;3.706;2023-02-12T01:34:49;103507.53;;;9.64;62.94
32735;BME280;19112;51.076;3.706;2023-02-12T01:37:15;103775.66;;;11.10;62.97
32735;BME280;19112;51.076;3.706;2023-02-12T01:39:41;103729.63;;;10.82;62.64
32735;BME280;19112;51.076;3.706;2023-02-12T01:42:12;103766.75;;;11.08;62.54
32735;BME280;19112;51.076;3.706;2023-02-12T01:47:31;103794.03;;;11.32;62.35
32735;BME280;19112;51.076;3.706;2023-02-12T01:49:57;103558.59;;;10.23;61.81
32735;BME280;19112;51.076;3.706;2023-02-12T01:52:27;103696.41;;;11.06;62.18
32735;BME280;19112;51.076;3.706;2023-02-12T01:54:59;103493.81;;;10.12;62.12
32735;BME280;19112;51.076;3.706;2023-02-12T01:57:29;103538.25;;;10.54;61.73
32735;BME280;19112;51.076;3.706;2023-02-12T01:59:57;103513.13;;;10.46;61.68
32735;BME280;19112;51.076;3.706;2023-02-12T02:02:24;103761.66;;;11.90;61.88
32735;BME280;19112;51.076;3.706;2023-02-12T02:04:56;103767.16;;;11.93;61.95
32735;BME280;19112;51.076;3.706;2023-02-12T02:07:23;103535.91;;;10.69;61.61
32735;BME280;19112;51.076;3.706;2023-02-12T02:09:50;103129.97;;;8.29;61.71
32735;BME280;19112;51.076;3.706;2023-02-12T02:12:16;103633.91;;;11.13;62.10
32735;BME280;19112;51.076;3.706;2023-02-12T02:15:02;103713.66;;;11.59;62.08
32735;BME280;19112;51.076;3.706;2023-02-12T02:17:57;103760.50;;;11.98;62.40
32735;BME280;19112;51.076;3.706;2023-02-12T02:29:45;103716.28;;;11.59;62.72
32735;BME280;19112;51.076;3.706;2023-02-12T02:32:26;103582.09;;;10.77;62.72
32735;BME280;19112;51.076;3.706;2023-02-12T02:35:22;103756.34;;;11.67;62.99
32735;BME280;19112;51.076;3.706;2023-02-12T02:38:17;103763.81;;;11.72;62.87
32735;BME280;19112;51.076;3.706;2023-02-12T02:41:07;103690.41;;;11.30;62.95
32735;BME280;19112;51.076;3.706;2023-02-12T02:43:43;103535.78;;;10.56;63.02
32735;BME280;19112;51.076;3.706;2023-02-12T02:46:26;103674.75;;;11.32;63.01
32735;BME280;19112;51.076;3.706;2023-02-12T02:49:01;103753.38;;;11.74;63.36
32735;BME280;19112;51.076;3.706;2023-02-12T02:51:36;103755.56;;;11.79;63.19
32735;BME280;19112;51.076;3.706;2023-02-12T02:56:38;103606.22;;;11.07;63.04
32735;BME280;19112;51.076;3.706;2023-02-12T02:59:11;103718.91;;;11.71;63.36
32735;BME280;19112;51.076;3.706;2023-02-12T03:01:50;103651.75;;;11.29;63.36
32735;BME280;19112;51.076;3.706;2023-02-12T03:04:26;103459.28;;;10.17;63.42
32735;BME280;19112;51.076;3.706;2023-02-12T03:07:05;103470.75;;;9.96;63.66
32735;BME280;19112;51.076;3.706;2023-02-12T03:09:44;103608.03;;;10.84;63.98
32735;BME280;19112;51.076;3.706;2023-02-12T03:12:18;103643.28;;;11.10;63.80
32735;BME280;19112;51.076;3.706;2023-02-12T03:15:17;103750.19;;;11.78;63.86
32735;BME280;19112;51.076;3.706;2023-02-12T03:17:47;103748.31;;;11.77;63.83
32735;BME280;19112;51.076;3.706;2023-02-12T03:20:21;103692.59;;;11.47;63.90
32735;BME280;19112;51.076;3.706;2023-02-12T03:23:05;103732.78;;;11.80;63.52
32735;BME280;19112;51.076;3.706;2023-02-12T03:25:47;103752.81;;;11.78;63.57
32735;BME280;19112;51.076;3.706;2023-02-12T03:28:24;103683.31;;;11.29;63.90
32735;BME280;19112;51.076;3.706;2023-02-12T03:31:18;103679.66;;;11.39;63.71
32735;BME280;19112;51.076;3.706;2023-02-12T03:34:32;103738.50;;;11.74;63.82
32735;BME280;19112;51.076;3.706;2023-02-12T03:39:57;103579.47;;;10.77;63.73
32735;BME280;19112;51.076;3.706;2023-02-12T03:43:02;103752.69;;;11.76;64.36
32735;BME280;19112;51.076;3.706;2023-02-12T03:45:54;103752.00;;;11.79;63.96
32735;BME280;19112;51.076;3.706;2023-02-12T03:48:24;103750.75;;;11.74;63.99
32735;BME280;19112;51.076;3.706;2023-02-12T03:54:00;103674.19;;;11.36;63.88
32735;BME280;19112;51.076;3.706;2023-02-12T03:56:51;103445.44;;;10.08;63.75
32735;BME280;19112;51.076;3.706;2023-02-12T03:59:22;103752.22;;;11.70;63.87
32735;BME280;19112;51.076;3.706;2023-02-12T04:01:51;103747.06;;;11.48;64.05
32735;BME280;19112;51.076;3.706;2023-02-12T04:04:18;103752.69;;;11.65;64.05
32735;BME280;19112;51.076;3.706;2023-02-12T04:06:46;103616.16;;;10.87;63.98
32735;BME280;19112;51.076;3.706;2023-02-12T04:09:14;103402.97;;;9.68;64.25
32735;BME280;19112;51.076;3.706;2023-02-12T04:27:25;103750.94;;;11.42;64.44
32735;BME280;19112;51.076;3.706;2023-02-12T04:30:06;103730.91;;;11.32;64.41
32735;BME280;19112;51.076;3.706;2023-02-12T04:33:10;103633.75;;;10.88;64.45
32735;BME280;19112;51.076;3.706;2023-02-12T04:35:59;103724.75;;;11.43;64.47
32735;BME280;19112;51.076;3.706;2023-02-12T04:41:05;103715.75;;;11.18;64.70
32735;BME280;19112;51.076;3.706;2023-02-12T04:43:35;103679.72;;;10.93;64.69
32735;BME280;19112;51.076;3.706;2023-02-12T04:46:04;103766.38;;;11.37;64.95
32735;BME280;19112;51.076;3.706;2023-02-12T04:48:30;103759.63;;;11.41;64.88
32735;BME280;19112;51.076;3.706;2023-02-12T04:50:56;103641.72;;;10.78;64.92
32735;BME280;19112;51.076;3.706;2023-02-12T04:53:22;103511.28;;;10.11;64.68
32735;BME280;19112;51.076;3.706;2023-02-12T04:55:47;103679.97;;;11.08;64.54
32735;BME280;19112;51.076;3.706;2023-02-12T04:58:16;103634.66;;;10.89;64.07
32735;BME280;19112;51.076;3.706;2023-02-12T05:00:42;103724.63;;;11.30;64.29
32735;BME280;19112;51.076;3.706;2023-02-12T05:03:07;103758.38;;;11.47;64.65
32735;BME280;19112;51.076;3.706;2023-02-12T05:05:33;103653.06;;;10.89;64.59
32735;BME280;19112;51.076;3.706;2023-02-12T05:07:59;103461.31;;;9.76;64.31
32735;BME280;19112;51.076;3.706;2023-02-12T05:10:25;103767.53;;;11.52;64.36
32735;BME280;19112;51.076;3.706;2023-02-12T05:12:52;103673.22;;;11.00;64.39
32735;BME280;19112;51.076;3.706;2023-02-12T05:15:19;103765.66;;;11.40;64.70
32735;BME280;19112;51.076;3.706;2023-02-12T05:17:44;103673.28;;;10.90;64.51
32735;BME280;19112;51.076;3.706;2023-02-12T05:20:12;103728.34;;;11.22;64.48
32735;BME280;19112;51.076;3.706;2023-02-12T05:22:38;103753.22;;;11.37;64.56
32735;BME280;19112;51.076;3.706;2023-02-12T05:25:04;103732.50;;;11.30;64.54
32735;BME280;19112;51.076;3.706;2023-02-12T05:27:30;103356.69;;;9.13;64.64
32735;BME280;19112;51.076;3.706;2023-02-12T05:29:56;103709.09;;;10.99;65.01
32735;BME280;19112;51.076;3.706;2023-02-12T05:32:23;103760.38;;;11.28;65.13
32735;BME280;19112;51.076;3.706;2023-02-12T05:34:49;103516.38;;;9.98;64.83
32735;BME280;19112;51.076;3.706;2023-02-12T05:37:15;103749.72;;;11.15;65.19
32735;BME280;19112;51.076;3.706;2023-02-12T05:39:40;103646.06;;;10.44;65.02
32735;BME280;19112;51.076;3.706;2023-02-12T05:42:06;103753.59;;;11.08;65.13
32735;BME280;19112;51.076;3.706;2023-02-12T05:44:32;103762.19;;;11.17;65.03
32735;BME280;19112;51.076;3.706;2023-02-12T05:46:58;103704.47;;;10.85;65.12
32735;BME280;19112;51.076;3.706;2023-02-12T05:49:24;103756.72;;;11.26;64.97
32735;BME280;19112;51.076;3.706;2023-02-12T05:51:50;103381.56;;;9.18;64.92
32735;BME280;19112;51.076;3.706;2023-02-12T05:54:15;103771.50;;;11.36;64.94
32735;BME280;19112;51.076;3.706;2023-02-12T05:56:46;103715.97;;;10.97;65.15
32735;BME280;19112;51.076;3.706;2023-02-12T05:59:16;103620.09;;;10.37;65.02
32735;BME280;19112;51.076;3.706;2023-02-12T06:01:44;103782.00;;;11.24;65.12
32735;BME280;19112;51.076;3.706;2023-02-12T06:04:20;103074.97;;;7.42;64.77
32735;BME280;19112;51.076;3.706;2023-02-12T06:06:49;103748.72;;;11.24;64.91
32735;BME280;19112;51.076;3.706;2023-02-12T06:09:15;103601.28;;;10.42;64.43
32735;BME280;19112;51.076;3.706;2023-02-12T06:11:41;103530.56;;;10.12;64.41
32735;BME280;19112;51.076;3.706;2023-02-12T06:14:12;103669.75;;;10.89;64.35
32735;BME280;19112;51.076;3.706;2023-02-12T06:16:38;103770.94;;;11.40;64.36
32735;BME280;19112;51.076;3.706;2023-02-12T06:19:05;103206.34;;;8.13;64.46
32735;BME280;19112;51.076;3.706;2023-02-12T06:21:32;103775.41;;;11.07;64.83
32735;BME280;19112;51.076;3.706;2023-02-12T06:23:58;103671.16;;;10.40;65.09
32735;BME280;19112;51.076;3.706;2023-02-12T06:26:24;103770.44;;;10.88;65.24
32735;BME280;19112;51.076;3.706;2023-02-12T06:28:50;103766.69;;;10.96;65.16
32735;BME280;19112;51.076;3.706;2023-02-12T06:31:26;103720.03;;;10.82;65.01
32735;BME280;19112;51.076;3.706;2023-02-12T06:33:54;103695.75;;;10.74;64.84
32735;BME280;19112;51.076;3.706;2023-02-12T06:36:21;103769.84;;;11.14;64.66
32735;BME280;19112;51.076;3.706;2023-02-12T06:38:47;103609.50;;;10.35;64.48
32735;BME280;19112;51.076;3.706;2023-02-12T06:41:14;103775.69;;;11.22;64.51
32735;BME280;19112;51.076;3.706;2023-02-12T06:43:39;103738.69;;;10.97;64.21
32735;BME280;19112;51.076;3.706;2023-02-12T06:46:06;103582.69;;;10.17;64.19
32735;BME280;19112;51.076;3.706;2023-02-12T06:48:32;103742.13;;;11.08;64.33
32735;BME280;19112;51.076;3.706;2023-02-12T06:51:12;103579.25;;;10.18;64.05
32735;BME280;19112;51.076;3.706;2023-02-12T06:53:38;103550.50;;;9.98;63.89
32735;BME280;19112;51.076;3.706;2023-02-12T06:56:06;103515.84;;;9.80;63.80
32735;BME280;19112;51.076;3.706;2023-02-12T06:58:36;103362.78;;;8.80;63.77
32735;BME280;19112;51.076;3.706;2023-02-12T07:01:18;103755.63;;;11.00;63.81
32735;BME280;19112;51.076;3.706;2023-02-12T07:03:52;103771.25;;;11.21;63.67
32735;BME280;19112;51.076;3.706;2023-02-12T07:06:18;103559.03;;;9.95;63.42
32735;BME280;19112;51.076;3.706;2023-02-12T07:08:44;103795.06;;;11.34;63.63
32735;BME280;19112;51.076;3.706;2023-02-12T07:11:11;103631.22;;;10.44;63.58
32735;BME280;19112;51.076;3.706;2023-02-12T07:13:38;103724.16;;;10.90;63.60
32735;BME280;19112;51.076;3.706;2023-02-12T07:16:11;103738.09;;;10.89;63.45
32735;BME280;19112;51.076;3.706;2023-02-12T07:18:38;103489.06;;;9.62;63.46
32735;BME280;19112;51.076;3.706;2023-02-12T07:21:06;103564.16;;;9.94;63.55
32735;BME280;19112;51.076;3.706;2023-02-12T07:23:34;103809.16;;;11.13;63.75
32735;BME280;19112;51.076;3.706;2023-02-12T07:26:06;103648.81;;;10.23;63.92
32735;BME280;19112;51.076;3.706;2023-02-12T07:28:33;103619.44;;;10.17;63.28
32735;BME280;19112;51.076;3.706;2023-02-12T07:31:20;103705.13;;;10.71;63.30
32735;BME280;19112;51.076;3.706;2023-02-12T07:33:47;103587.84;;;10.06;62.99
32735;BME280;19112;51.076;3.706;2023-02-12T07:36:16;103742.25;;;10.97;62.90
32735;BME280;19112;51.076;3.706;2023-02-12T07:38:43;103835.03;;;11.52;62.77
32735;BME280;19112;51.076;3.706;2023-02-12T07:41:13;103834.56;;;11.46;62.99
32735;BME280;19112;51.076;3.706;2023-02-12T07:43:41;103627.63;;;10.00;62.95
32735;BME280;19112;51.076;3.706;2023-02-12T07:46:14;103834.06;;;11.06;63.00
32735;BME280;19112;51.076;3.706;2023-02-12T07:48:42;103613.22;;;9.73;62.53
32735;BME280;19112;51.076;3.706;2023-02-12T07:51:11;103716.91;;;10.32;62.62
32735;BME280;19112;51.076;3.706;2023-02-12T07:53:38;103760.41;;;10.51;62.64
32735;BME280;19112;51.076;3.706;2023-02-12T07:58:43;103716.47;;;10.60;62.27
32735;BME280;19112;51.076;3.706;2023-02-12T08:01:22;103793.72;;;11.06;61.09
32735;BME280;19112;51.076;3.706;2023-02-12T08:03:49;103559.66;;;9.81;60.42
32735;BME280;19112;51.076;3.706;2023-02-12T08:06:22;103837.75;;;11.42;59.40
32735;BME280;19112;51.076;3.706;2023-02-12T08:08:54;103829.03;;;11.31;59.22
32735;BME280;19112;51.076;3.706;2023-02-12T08:11:21;103727.91;;;10.82;58.74
32735;BME280;19112;51.076;3.706;2023-02-12T08:13:47;103499.31;;;9.59;58.98
32735;BME280;19112;51.076;3.706;2023-02-12T08:16:19;103840.78;;;11.58;58.76
32735;BME280;19112;51.076;3.706;2023-02-12T08:18:46;103780.78;;;11.31;58.55
32735;BME280;19112;51.076;3.706;2023-02-12T08:21:19;103664.28;;;10.64;58.10
32735;BME280;19112;51.076;3.706;2023-02-12T08:23:46;103641.66;;;10.55;58.23
32735;BME280;19112;51.076;3.706;2023-02-12T08:26:19;103849.25;;;11.66;58.34
32735;BME280;19112;51.076;3.706;2023-02-12T08:29:08;103765.19;;;11.34;56.85
32735;BME280;19112;51.076;3.706;2023-02-12T08:31:41;103834.88;;;11.72;56.41
32735;BME280;19112;51.076;3.706;2023-02-12T08:34:18;103601.94;;;10.28;56.56
32735;BME280;19112;51.076;3.706;2023-02-12T08:36:46;103862.19;;;11.63;56.80
32735;BME280;19112;51.076;3.706;2023-02-12T08:39:15;103739.50;;;11.08;57.15
32735;BME280;19112;51.076;3.706;2023-02-12T08:41:41;103856.84;;;11.73;57.08
32735;BME280;19112;51.076;3.706;2023-02-12T08:44:07;103859.00;;;11.67;57.14
32735;BME280;19112;51.076;3.706;2023-02-12T08:46:37;103844.47;;;11.72;57.18
32735;BME280;19112;51.076;3.706;2023-02-12T08:49:12;103858.72;;;11.97;57.09
32735;BME280;19112;51.076;3.706;2023-02-12T08:51:42;103614.13;;;10.49;56.48
32735;BME280;19112;51.076;3.706;2023-02-12T08:54:13;103876.72;;;12.03;55.38
32735;BME280;19112;51.076;3.706;2023-02-12T08:56:40;103846.25;;;12.06;54.96
32735;BME280;19112;51.076;3.706;2023-02-12T08:59:07;103819.41;;;11.77;53.97
32735;BME280;19112;51.076;3.706;2023-02-12T09:01:36;103890.94;;;12.28;54.15
32735;BME280;19112;51.076;3.706;2023-02-12T09:04:21;103614.91;;;11.06;54.20
32735;BME280;19112;51.076;3.706;2023-02-12T09:06:48;103878.69;;;12.29;53.75
32735;BME280;19112;51.076;3.706;2023-02-12T09:09:15;103751.75;;;11.76;54.28
32735;BME280;19112;51.076;3.706;2023-02-12T09:11:41;103846.25;;;12.30;54.28
32735;BME280;19112;51.076;3.706;2023-02-12T09:14:12;103725.53;;;11.54;54.22
32735;BME280;19112;51.076;3.706;2023-02-12T09:16:38;103812.03;;;11.83;54.64
32735;BME280;19112;51.076;3.706;2023-02-12T09:19:05;103853.25;;;12.29;54.79
32735;BME280;19112;51.076;3.706;2023-02-12T09:21:31;103850.03;;;12.45;54.20
32735;BME280;19112;51.076;3.706;2023-02-12T09:23:57;103691.13;;;11.63;53.67
32735;BME280;19112;51.076;3.706;2023-02-12T09:26:24;103679.22;;;11.68;53.70
32735;BME280;19112;51.076;3.706;2023-02-12T09:28:51;103682.91;;;11.82;52.79
32735;BME280;19112;51.076;3.706;2023-02-12T09:31:24;103784.28;;;12.47;53.04
32735;BME280;19112;51.076;3.706;2023-02-12T09:33:53;103858.44;;;12.88;52.25
32735;BME280;19112;51.076;3.706;2023-02-12T09:36:20;103776.16;;;12.44;52.05
32735;BME280;19112;51.076;3.706;2023-02-12T09:38:46;103789.66;;;12.48;52.20
32735;BME280;19112;51.076;3.706;2023-02-12T09:41:39;103777.50;;;12.50;52.37
32735;BME280;19112;51.076;3.706;2023-02-12T09:44:36;103861.84;;;13.10;52.14
32735;BME280;19112;51.076;3.706;2023-02-12T09:47:38;103798.69;;;12.64;51.69
32735;BME280;19112;51.076;3.706;2023-02-12T09:53:01;103804.50;;;12.71;50.59
32735;BME280;19112;51.076;3.706;2023-02-12T09:55:33;103715.91;;;12.37;50.99
32735;BME280;19112;51.076;3.706;2023-02-12T09:58:19;103828.75;;;12.91;50.99
32735;BME280;19112;51.076;3.706;2023-02-12T10:00:46;103832.97;;;13.00;50.00
32735;BME280;19112;51.076;3.706;2023-02-12T10:03:15;103734.44;;;12.38;50.14
32735;BME280;19112;51.076;3.706;2023-02-12T10:06:03;103865.56;;;13.26;50.50
32735;BME280;19112;51.076;3.706;2023-02-12T10:09:01;103875.63;;;13.43;50.18
32735;BME280;19112;51.076;3.706;2023-02-12T10:12:01;103832.16;;;13.38;49.60
32735;BME280;19112;51.076;3.706;2023-02-12T10:17:28;103795.06;;;13.11;48.52
32735;BME280;19112;51.076;3.706;2023-02-12T10:28:20;103834.72;;;13.25;48.02
32735;BME280;19112;51.076;3.706;2023-02-12T10:31:01;103636.59;;;12.09;48.46
32735;BME280;19112;51.076;3.706;2023-02-12T10:33:44;103694.41;;;12.30;48.70
32735;BME280;19112;51.076;3.706;2023-02-12T10:36:38;103874.41;;;13.51;48.14
32735;BME280;19112;51.076;3.706;2023-02-12T10:41:40;103874.84;;;13.57;47.78
32735;BME280;19112;51.076;3.706;2023-02-12T10:44:10;103882.81;;;13.71;47.28
32735;BME280;19112;51.076;3.706;2023-02-12T10:46:36;103629.31;;;12.54;47.06
32735;BME280;19112;51.076;3.706;2023-02-12T10:49:02;103787.78;;;13.46;46.96
32735;BME280;19112;51.076;3.706;2023-02-12T10:52:03;103869.03;;;13.88;47.02
32735;BME280;19112;51.076;3.706;2023-02-12T10:54:44;103873.22;;;13.98;46.72
32735;BME280;19112;51.076;3.706;2023-02-12T10:57:29;103739.09;;;13.54;45.42
32735;BME280;19112;51.076;3.706;2023-02-12T11:03:19;103834.50;;;14.38;45.82
32735;BME280;19112;51.076;3.706;2023-02-12T11:05:46;103742.84;;;13.84;45.71
32735;BME280;19112;51.076;3.706;2023-02-12T11:08:33;103619.19;;;13.37;45.51
32735;BME280;19112;51.076;3.706;2023-02-12T11:11:26;103852.28;;;14.80;45.45
32735;BME280;19112;51.076;3.706;2023-02-12T11:16:39;103847.25;;;14.98;45.15
32735;BME280;19112;51.076;3.706;2023-02-12T11:19:21;103815.75;;;14.88;43.77
32735;BME280;19112;51.076;3.706;2023-02-12T11:21:47;103706.13;;;14.28;43.79
32735;BME280;19112;51.076;3.706;2023-02-12T11:24:32;103810.97;;;15.10;43.62
32735;BME280;19112;51.076;3.706;2023-02-12T11:27:25;103825.56;;;14.76;43.79
32735;BME280;19112;51.076;3.706;2023-02-12T11:32:35;103765.69;;;14.50;44.39
32735;BME280;19112;51.076;3.706;2023-02-12T11:35:25;103637.22;;;13.57;44.18
32735;BME280;19112;51.076;3.706;2023-02-12T11:37:58;103832.88;;;14.66;44.00
32735;BME280;19112;51.076;3.706;2023-02-12T11:40:28;103839.56;;;14.75;44.26
32735;BME280;19112;51.076;3.706;2023-02-12T11:43:04;103632.13;;;13.74;44.32
32735;BME280;19112;51.076;3.706;2023-02-12T11:45:47;103637.41;;;13.87;44.37
32735;BME280;19112;51.076;3.706;2023-02-12T11:48:32;103541.63;;;13.48;44.73
32735;BME280;19112;51.076;3.706;2023-02-12T11:51:02;103826.81;;;15.24;44.20
32735;BME280;19112;51.076;3.706;2023-02-12T11:53:36;103638.41;;;13.89;43.67
32735;BME280;19112;51.076;3.706;2023-02-12T11:56:09;103828.06;;;14.74;43.97
32735;BME280;19112;51.076;3.706;2023-02-12T11:58:36;103698.97;;;13.73;45.00
32735;BME280;19112;51.076;3.706;2023-02-12T12:01:17;103780.16;;;14.28;45.05
32735;BME280;19112;51.076;3.706;2023-02-12T12:08:55;103816.13;;;14.94;44.44
32735;BME280;19112;51.076;3.706;2023-02-12T12:14:43;103659.03;;;14.36;44.56
32735;BME280;19112;51.076;3.706;2023-02-12T12:18:00;103737.53;;;14.78;44.01
32735;BME280;19112;51.076;3.706;2023-02-12T12:20:52;103731.78;;;14.71;44.21
32735;BME280;19112;51.076;3.706;2023-02-12T12:23:30;103667.72;;;14.20;44.33
32735;BME280;19112;51.076;3.706;2023-02-12T12:26:29;103784.31;;;14.79;44.27
32735;BME280;19112;51.076;3.706;2023-02-12T12:29:21;103793.31;;;14.96;44.50
32735;BME280;19112;51.076;3.706;2023-02-12T12:31:54;103484.78;;;13.40;44.48
32735;BME280;19112;51.076;3.706;2023-02-12T12:34:24;103537.50;;;13.67;44.27
32735;BME280;19112;51.076;3.706;2023-02-12T12:42:54;103764.91;;;15.22;44.12
32735;BME280;19112;51.076;3.706;2023-02-12T12:49:13;103755.28;;;14.94;43.97
32735;BME280;19112;51.076;3.706;2023-02-12T12:52:02;103684.75;;;14.38;44.14
32735;BME280;19112;51.076;3.706;2023-02-12T12:55:15;103761.56;;;14.68;44.46
32735;BME280;19112;51.076;3.706;2023-02-12T12:58:34;103759.50;;;14.49;44.88
32735;BME280;19112;51.076;3.706;2023-02-12T13:07:29;103755.78;;;15.31;45.01
32735;BME280;19112;51.076;3.706;2023-02-12T13:11:01;103754.84;;;15.16;43.89
32735;BME280;19112;51.076;3.706;2023-02-12T13:13:36;103688.00;;;14.76;43.72
32735;BME280;19112;51.076;3.706;2023-02-12T13:19:10;103632.72;;;14.80;43.30
32735;BME280;19112;51.076;3.706;2023-02-12T13:24:42;103731.28;;;15.63;43.01
32735;BME280;19112;51.076;3.706;2023-02-12T13:27:23;103450.81;;;13.87;42.53
32735;BME280;19112;51.076;3.706;2023-02-12T13:35:52;103522.44;;;13.79;43.96
32735;BME280;19112;51.076;3.706;2023-02-12T13:38:26;103657.84;;;14.59;44.58
32735;BME280;19112;51.076;3.706;2023-02-12T13:41:01;103683.84;;;13.97;44.88
32735;BME280;19112;51.076;3.706;2023-02-12T13:49:24;103564.25;;;13.45;45.60
32735;BME280;19112;51.076;3.706;2023-02-12T13:54:56;103713.03;;;14.39;45.81
32735;BME280;19112;51.076;3.706;2023-02-12T13:57:25;103623.94;;;14.10;45.91
32735;BME280;19112;51.076;3.706;2023-02-12T13:59:52;103659.25;;;14.39;45.66
32735;BME280;19112;51.076;3.706;2023-02-12T14:05:27;103696.59;;;15.01;45.91
32735;BME280;19112;51.076;3.706;2023-02-12T14:07:58;103631.72;;;14.78;45.70
32735;BME280;19112;51.076;3.706;2023-02-12T14:10:40;103688.06;;;15.35;44.86
32735;BME280;19112;51.076;3.706;2023-02-12T14:13:18;103613.78;;;15.02;45.11
32735;BME280;19112;51.076;3.706;2023-02-12T14:15:52;103505.88;;;14.52;44.59
32735;BME280;19112;51.076;3.706;2023-02-12T14:23:44;103644.06;;;15.22;44.41
32735;BME280;19112;51.076;3.706;2023-02-12T14:26:21;103464.47;;;13.95;44.22
32735;BME280;19112;51.076;3.706;2023-02-12T14:29:03;103641.41;;;14.92;45.10
32735;BME280;19112;51.076;3.706;2023-02-12T14:31:37;103433.84;;;13.15;45.18
32735;BME280;19112;51.076;3.706;2023-02-12T14:41:54;103616.25;;;14.00;46.02
32735;BME280;19112;51.076;3.706;2023-02-12T14:47:00;103683.50;;;14.75;46.68
32735;BME280;19112;51.076;3.706;2023-02-12T14:49:38;103647.16;;;14.71;45.91
32735;BME280;19112;51.076;3.706;2023-02-12T14:57:38;103673.25;;;14.51;46.47
32735;BME280;19112;51.076;3.706;2023-02-12T15:05:26;103668.78;;;14.37;46.72
32735;BME280;19112;51.076;3.706;2023-02-12T15:07:58;103641.88;;;14.01;47.17
32735;BME280;19112;51.076;3.706;2023-02-12T15:10:48;103509.25;;;13.24;47.23
32735;BME280;19112;51.076;3.706;2023-02-12T15:13:24;103431.75;;;12.82;47.43
32735;BME280;19112;51.076;3.706;2023-02-12T15:16:12;103634.47;;;13.96;47.55
32735;BME280;19112;51.076;3.706;2023-02-12T15:18:51;103659.03;;;13.95;47.22
32735;BME280;19112;51.076;3.706;2023-02-12T15:21:23;103655.19;;;13.89;47.28
32735;BME280;19112;51.076;3.706;2023-02-12T15:24:09;103508.44;;;12.85;47.68
32735;BME280;19112;51.076;3.706;2023-02-12T15:26:52;103597.56;;;13.29;48.22
32735;BME280;19112;51.076;3.706;2023-02-12T15:29:28;103614.41;;;13.45;48.55
32735;BME280;19112;51.076;3.706;2023-02-12T15:32:02;103546.03;;;12.83;49.46
32735;BME280;19112;51.076;3.706;2023-02-12T15:34:32;103507.50;;;12.72;49.24
32735;BME280;19112;51.076;3.706;2023-02-12T15:37:01;103615.03;;;13.27;49.00
32735;BME280;19112;51.076;3.706;2023-02-12T15:39:43;103605.88;;;13.35;49.30
32735;BME280;19112;51.076;3.706;2023-02-12T15:42:34;103574.56;;;13.02;49.16
32735;BME280;19112;51.076;3.706;2023-02-12T15:47:42;103560.63;;;12.65;49.78